sensor_id;sensor_type;location;lat;lon;timestamp;temperature;humidity
83500;DHT22;73433;50.908;13.746;2024-03-23T00:53:57;10.50;75.40
83500;DHT22;73433;50.908;13.746;2024-03-23T00:56:23;10.40;75.50
83500;DHT22;73433;50.908;13.746;2024-03-23T00:58:50;10.30;75.80
83500;DHT22;73433;50.908;13.746;2024-03-23T01:01:16;10.20;76.30
83500;DHT22;73433;50.908;13.746;2024-03-23T01:03:42;10.10;76.60
83500;DHT22;73433;50.908;13.746;2024-03-23T01:06:08;9.90;77.20
83500;DHT22;73433;50.908;13.746;2024-03-23T01:08:35;9.80;77.60
83500;DHT22;73433;50.908;13.746;2024-03-23T01:11:01;9.70;78.30
83500;DHT22;73433;50.908;13.746;2024-03-23T01:13:28;9.60;78.70
83500;DHT22;73433;50.908;13.746;2024-03-23T01:15:55;9.60;78.90
83500;DHT22;73433;50.908;13.746;2024-03-23T01:18:23;9.60;78.90
83500;DHT22;73433;50.908;13.746;2024-03-23T01:20:49;9.60;78.90
83500;DHT22;73433;50.908;13.746;2024-03-23T01:23:16;9.50;79.10
83500;DHT22;73433;50.908;13.746;2024-03-23T01:25:42;9.50;79.10
83500;DHT22;73433;50.908;13.746;2024-03-23T01:28:08;9.50;80.00
83500;DHT22;73433;50.908;13.746;2024-03-23T01:30:35;9.40;79.20
83500;DHT22;73433;50.908;13.746;2024-03-23T01:33:01;9.40;79.40
83500;DHT22;73433;50.908;13.746;2024-03-23T01:35:30;9.30;79.50
83500;DHT22;73433;50.908;13.746;2024-03-23T01:37:56;9.20;79.70
83500;DHT22;73433;50.908;13.746;2024-03-23T01:40:23;9.20;79.90
83500;DHT22;73433;50.908;13.746;2024-03-23T01:42:56;9.10;80.20
83500;DHT22;73433;50.908;13.746;2024-03-23T01:45:22;9.00;80.30
83500;DHT22;73433;50.908;13.746;2024-03-23T01:47:50;8.90;80.80
83500;DHT22;73433;50.908;13.746;2024-03-23T01:50:17;8.80;80.80
83500;DHT22;73433;50.908;13.746;2024-03-23T01:52:43;8.70;81.10
83500;DHT22;73433;50.908;13.746;2024-03-23T01:55:10;8.60;81.30
83500;DHT22;73433;50.908;13.746;2024-03-23T01:57:36;8.50;81.40
83500;DHT22;73433;50.908;13.746;2024-03-23T02:00:03;8.30;81.60
83500;DHT22;73433;50.908;13.746;2024-03-23T02:02:29;8.20;82.10
83500;DHT22;73433;50.908;13.746;2024-03-23T02:04:55;8.10;82.50
83500;DHT22;73433;50.908;13.746;2024-03-23T02:07:21;7.90;82.80
83500;DHT22;73433;50.908;13.746;2024-03-23T02:09:47;7.80;82.80
83500;DHT22;73433;50.908;13.746;2024-03-23T02:12:13;7.70;83.20
83500;DHT22;73433;50.908;13.746;2024-03-23T02:14:39;7.50;83.60
83500;DHT22;73433;50.908;13.746;2024-03-23T02:17:05;7.40;84.00
83500;DHT22;73433;50.908;13.746;2024-03-23T02:19:31;7.30;84.60
83500;DHT22;73433;50.908;13.746;2024-03-23T02:21:58;7.20;84.90
83500;DHT22;73433;50.908;13.746;2024-03-23T02:24:24;7.10;85.30
83500;DHT22;73433;50.908;13.746;2024-03-23T02:26:50;7.00;85.30
83500;DHT22;73433;50.908;13.746;2024-03-23T02:29:16;6.80;85.80
83500;DHT22;73433;50.908;13.746;2024-03-23T02:31:42;6.80;86.30
83500;DHT22;73433;50.908;13.746;2024-03-23T02:34:08;6.70;86.90
83500;DHT22;73433;50.908;13.746;2024-03-23T02:36:34;6.60;87.10
83500;DHT22;73433;50.908;13.746;2024-03-23T02:39:00;6.60;87.30
83500;DHT22;73433;50.908;13.746;2024-03-23T02:41:26;6.50;87.80
83500;DHT22;73433;50.908;13.746;2024-03-23T02:43:53;6.50;88.80
83500;DHT22;73433;50.908;13.746;2024-03-23T02:46:19;6.50;89.50
83500;DHT22;73433;50.908;13.746;2024-03-23T02:48:45;6.50;90.00
83500;DHT22;73433;50.908;13.746;2024-03-23T02:51:14;6.50;90.40
83500;DHT22;73433;50.908;13.746;2024-03-23T02:53:40;6.50;90.80
83500;DHT22;73433;50.908;13.746;2024-03-23T02:56:06;6.50;90.70
83500;DHT22;73433;50.908;13.746;2024-03-23T02:58:33;6.50;90.80
83500;DHT22;73433;50.908;13.746;2024-03-23T03:00:59;6.50;90.50
83500;DHT22;73433;50.908;13.746;2024-03-23T03:03:25;6.50;90.40
83500;DHT22;73433;50.908;13.746;2024-03-23T03:05:57;6.50;90.30
83500;DHT22;73433;50.908;13.746;2024-03-23T03:08:24;6.40;90.30
83500;DHT22;73433;50.908;13.746;2024-03-23T03:10:50;6.40;91.00
83500;DHT22;73433;50.908;13.746;2024-03-23T03:13:16;6.40;91.40
83500;DHT22;73433;50.908;13.746;2024-03-23T03:15:43;6.40;91.50
83500;DHT22;73433;50.908;13.746;2024-03-23T03:18:10;6.40;91.40
83500;DHT22;73433;50.908;13.746;2024-03-23T03:20:39;6.40;91.30
83500;DHT22;73433;50.908;13.746;2024-03-23T03:23:06;6.40;91.20
83500;DHT22;73433;50.908;13.746;2024-03-23T03:25:32;6.30;91.10
83500;DHT22;73433;50.908;13.746;2024-03-23T03:27:58;6.30;91.40
83500;DHT22;73433;50.908;13.746;2024-03-23T03:30:25;6.30;91.40
83500;DHT22;73433;50.908;13.746;2024-03-23T03:32:53;6.20;91.30
83500;DHT22;73433;50.908;13.746;2024-03-23T03:35:20;6.20;91.40
83500;DHT22;73433;50.908;13.746;2024-03-23T03:37:46;6.10;91.70
83500;DHT22;73433;50.908;13.746;2024-03-23T03:40:13;6.10;92.20
83500;DHT22;73433;50.908;13.746;2024-03-23T03:42:41;6.10;92.40
83500;DHT22;73433;50.908;13.746;2024-03-23T03:45:07;6.10;92.50
83500;DHT22;73433;50.908;13.746;2024-03-23T03:47:33;6.10;92.30
83500;DHT22;73433;50.908;13.746;2024-03-23T03:49:59;6.00;92.20
83500;DHT22;73433;50.908;13.746;2024-03-23T03:52:26;6.00;92.40
83500;DHT22;73433;50.908;13.746;2024-03-23T03:55:01;6.00;92.60
83500;DHT22;73433;50.908;13.746;2024-03-23T03:57:28;6.00;93.10
83500;DHT22;73433;50.908;13.746;2024-03-23T03:59:55;6.10;93.40
83500;DHT22;73433;50.908;13.746;2024-03-23T04:02:21;6.10;93.50
83500;DHT22;73433;50.908;13.746;2024-03-23T04:04:47;6.10;93.50
83500;DHT22;73433;50.908;13.746;2024-03-23T04:07:13;6.10;93.70
83500;DHT22;73433;50.908;13.746;2024-03-23T04:09:39;6.20;93.70
83500;DHT22;73433;50.908;13.746;2024-03-23T04:12:06;6.20;93.70
83500;DHT22;73433;50.908;13.746;2024-03-23T04:14:32;6.20;93.60
83500;DHT22;73433;50.908;13.746;2024-03-23T04:16:58;6.30;93.90
83500;DHT22;73433;50.908;13.746;2024-03-23T04:19:25;6.30;94.20
83500;DHT22;73433;50.908;13.746;2024-03-23T04:21:51;6.40;95.10
83500;DHT22;73433;50.908;13.746;2024-03-23T04:24:17;6.40;94.30
83500;DHT22;73433;50.908;13.746;2024-03-23T04:26:45;6.40;94.40
83500;DHT22;73433;50.908;13.746;2024-03-23T04:29:12;6.40;94.60
83500;DHT22;73433;50.908;13.746;2024-03-23T04:31:38;6.50;94.90
83500;DHT22;73433;50.908;13.746;2024-03-23T04:34:05;6.50;94.90
83500;DHT22;73433;50.908;13.746;2024-03-23T04:36:31;6.60;94.80
83500;DHT22;73433;50.908;13.746;2024-03-23T04:38:59;6.60;94.90
83500;DHT22;73433;50.908;13.746;2024-03-23T04:41:25;6.60;94.90
83500;DHT22;73433;50.908;13.746;2024-03-23T04:43:52;6.60;94.80
83500;DHT22;73433;50.908;13.746;2024-03-23T04:46:18;6.60;94.80
83500;DHT22;73433;50.908;13.746;2024-03-23T04:48:44;6.70;94.90
83500;DHT22;73433;50.908;13.746;2024-03-23T04:51:10;6.70;94.90
83500;DHT22;73433;50.908;13.746;2024-03-23T04:53:39;6.70;94.90
83500;DHT22;73433;50.908;13.746;2024-03-23T04:56:05;6.80;95.20
83500;DHT22;73433;50.908;13.746;2024-03-23T04:58:32;6.80;95.60
83500;DHT22;73433;50.908;13.746;2024-03-23T05:00:58;6.80;95.70
83500;DHT22;73433;50.908;13.746;2024-03-23T05:03:24;6.90;96.10
83500;DHT22;73433;50.908;13.746;2024-03-23T05:05:50;6.90;96.10
83500;DHT22;73433;50.908;13.746;2024-03-23T05:08:16;6.90;96.30
83500;DHT22;73433;50.908;13.746;2024-03-23T05:10:43;7.00;96.40
83500;DHT22;73433;50.908;13.746;2024-03-23T05:13:09;7.00;96.60
83500;DHT22;73433;50.908;13.746;2024-03-23T05:15:36;7.00;97.00
83500;DHT22;73433;50.908;13.746;2024-03-23T05:18:02;7.00;97.00
83500;DHT22;73433;50.908;13.746;2024-03-23T05:20:28;7.00;97.00
83500;DHT22;73433;50.908;13.746;2024-03-23T05:22:55;7.00;97.10
83500;DHT22;73433;50.908;13.746;2024-03-23T05:25:24;7.00;97.00
83500;DHT22;73433;50.908;13.746;2024-03-23T05:27:50;7.00;97.00
83500;DHT22;73433;50.908;13.746;2024-03-23T05:30:16;7.00;97.00
83500;DHT22;73433;50.908;13.746;2024-03-23T05:32:42;7.00;97.10
83500;DHT22;73433;50.908;13.746;2024-03-23T05:35:09;7.10;97.10
83500;DHT22;73433;50.908;13.746;2024-03-23T05:37:35;7.10;97.20
83500;DHT22;73433;50.908;13.746;2024-03-23T05:40:03;7.10;97.00
83500;DHT22;73433;50.908;13.746;2024-03-23T05:42:29;7.10;96.90
83500;DHT22;73433;50.908;13.746;2024-03-23T05:44:56;7.10;96.60
83500;DHT22;73433;50.908;13.746;2024-03-23T05:47:22;7.10;96.50
83500;DHT22;73433;50.908;13.746;2024-03-23T05:49:48;7.10;96.50
83500;DHT22;73433;50.908;13.746;2024-03-23T05:52:14;7.10;96.40
83500;DHT22;73433;50.908;13.746;2024-03-23T05:54:40;7.10;96.50
83500;DHT22;73433;50.908;13.746;2024-03-23T05:57:09;7.10;96.50
83500;DHT22;73433;50.908;13.746;2024-03-23T05:59:35;7.10;96.50
83500;DHT22;73433;50.908;13.746;2024-03-23T06:02:01;7.10;96.50
83500;DHT22;73433;50.908;13.746;2024-03-23T06:04:27;7.10;96.50
83500;DHT22;73433;50.908;13.746;2024-03-23T06:06:53;7.10;96.50
83500;DHT22;73433;50.908;13.746;2024-03-23T06:09:19;7.10;96.40
83500;DHT22;73433;50.908;13.746;2024-03-23T06:11:46;7.10;96.40
83500;DHT22;73433;50.908;13.746;2024-03-23T06:14:12;7.10;96.40
83500;DHT22;73433;50.908;13.746;2024-03-23T06:16:38;7.10;96.40
83500;DHT22;73433;50.908;13.746;2024-03-23T06:19:04;7.10;96.40
83500;DHT22;73433;50.908;13.746;2024-03-23T06:21:33;7.10;96.40
83500;DHT22;73433;50.908;13.746;2024-03-23T06:23:59;7.10;96.30
83500;DHT22;73433;50.908;13.746;2024-03-23T06:26:25;7.10;96.10
83500;DHT22;73433;50.908;13.746;2024-03-23T06:28:51;7.10;96.00
83500;DHT22;73433;50.908;13.746;2024-03-23T06:31:17;7.10;96.00
83500;DHT22;73433;50.908;13.746;2024-03-23T06:33:43;7.10;96.00
83500;DHT22;73433;50.908;13.746;2024-03-23T06:36:10;7.20;96.10
83500;DHT22;73433;50.908;13.746;2024-03-23T06:38:37;7.20;96.30
83500;DHT22;73433;50.908;13.746;2024-03-23T06:41:06;7.20;96.30
83500;DHT22;73433;50.908;13.746;2024-03-23T06:43:33;7.20;96.50
83500;DHT22;73433;50.908;13.746;2024-03-23T06:45:59;7.20;96.40
83500;DHT22;73433;50.908;13.746;2024-03-23T06:48:25;7.20;96.30
83500;DHT22;73433;50.908;13.746;2024-03-23T06:50:56;7.20;96.10
83500;DHT22;73433;50.908;13.746;2024-03-23T06:53:23;7.20;96.10
83500;DHT22;73433;50.908;13.746;2024-03-23T06:55:53;7.20;96.10
83500;DHT22;73433;50.908;13.746;2024-03-23T06:58:20;7.20;96.20
83500;DHT22;73433;50.908;13.746;2024-03-23T07:00:46;7.20;96.30
83500;DHT22;73433;50.908;13.746;2024-03-23T07:03:13;7.20;96.40
83500;DHT22;73433;50.908;13.746;2024-03-23T07:05:39;7.30;96.70
83500;DHT22;73433;50.908;13.746;2024-03-23T07:08:05;7.30;96.70
83500;DHT22;73433;50.908;13.746;2024-03-23T07:10:31;7.30;96.70
83500;DHT22;73433;50.908;13.746;2024-03-23T07:12:57;7.40;96.70
83500;DHT22;73433;50.908;13.746;2024-03-23T07:15:23;7.40;96.70
83500;DHT22;73433;50.908;13.746;2024-03-23T07:17:49;7.40;96.80
83500;DHT22;73433;50.908;13.746;2024-03-23T07:20:16;7.40;96.70
83500;DHT22;73433;50.908;13.746;2024-03-23T07:22:42;7.50;97.10
83500;DHT22;73433;50.908;13.746;2024-03-23T07:25:08;7.50;97.20
83500;DHT22;73433;50.908;13.746;2024-03-23T07:27:34;7.50;97.20
83500;DHT22;73433;50.908;13.746;2024-03-23T07:30:00;7.60;97.10
83500;DHT22;73433;50.908;13.746;2024-03-23T07:32:27;7.70;96.90
83500;DHT22;73433;50.908;13.746;2024-03-23T07:34:53;7.80;97.10
83500;DHT22;73433;50.908;13.746;2024-03-23T07:37:19;7.90;97.20
83500;DHT22;73433;50.908;13.746;2024-03-23T07:39:45;8.10;97.30
83500;DHT22;73433;50.908;13.746;2024-03-23T07:42:11;8.30;97.00
83500;DHT22;73433;50.908;13.746;2024-03-23T07:44:38;8.40;96.60
83500;DHT22;73433;50.908;13.746;2024-03-23T07:47:04;8.70;96.40
83500;DHT22;73433;50.908;13.746;2024-03-23T07:49:30;9.00;95.90
83500;DHT22;73433;50.908;13.746;2024-03-23T07:51:56;9.30;94.90
83500;DHT22;73433;50.908;13.746;2024-03-23T07:54:22;9.60;93.10
83500;DHT22;73433;50.908;13.746;2024-03-23T07:56:48;10.00;91.70
83500;DHT22;73433;50.908;13.746;2024-03-23T07:59:14;10.30;90.00
83500;DHT22;73433;50.908;13.746;2024-03-23T08:01:40;10.60;87.60
83500;DHT22;73433;50.908;13.746;2024-03-23T08:04:07;10.90;85.30
83500;DHT22;73433;50.908;13.746;2024-03-23T08:06:36;11.10;82.70
83500;DHT22;73433;50.908;13.746;2024-03-23T08:09:04;11.30;82.20
83500;DHT22;73433;50.908;13.746;2024-03-23T08:11:31;11.40;81.10
83500;DHT22;73433;50.908;13.746;2024-03-23T08:13:58;11.50;80.60
83500;DHT22;73433;50.908;13.746;2024-03-23T08:16:25;11.60;79.90
83500;DHT22;73433;50.908;13.746;2024-03-23T08:18:54;11.70;79.50
83500;DHT22;73433;50.908;13.746;2024-03-23T08:21:23;11.80;79.20
83500;DHT22;73433;50.908;13.746;2024-03-23T08:23:51;12.00;77.80
83500;DHT22;73433;50.908;13.746;2024-03-23T08:26:17;12.00;77.60
83500;DHT22;73433;50.908;13.746;2024-03-23T08:28:45;12.10;77.60
83500;DHT22;73433;50.908;13.746;2024-03-23T08:31:12;12.20;78.10
83500;DHT22;73433;50.908;13.746;2024-03-23T08:33:39;12.80;78.30
83500;DHT22;73433;50.908;13.746;2024-03-23T08:36:07;13.40;76.30
83500;DHT22;73433;50.908;13.746;2024-03-23T08:38:34;13.90;73.50
83500;DHT22;73433;50.908;13.746;2024-03-23T08:41:10;14.10;70.60
83500;DHT22;73433;50.908;13.746;2024-03-23T08:43:38;14.20;70.00
83500;DHT22;73433;50.908;13.746;2024-03-23T08:46:10;14.30;67.90
83500;DHT22;73433;50.908;13.746;2024-03-23T08:48:43;14.30;67.00
83500;DHT22;73433;50.908;13.746;2024-03-23T08:51:10;14.20;66.30
83500;DHT22;73433;50.908;13.746;2024-03-23T08:53:38;14.10;65.80
83500;DHT22;73433;50.908;13.746;2024-03-23T08:56:06;13.90;65.30
83500;DHT22;73433;50.908;13.746;2024-03-23T08:58:33;13.70;66.50
83500;DHT22;73433;50.908;13.746;2024-03-23T09:01:08;13.50;67.20
83500;DHT22;73433;50.908;13.746;2024-03-23T09:03:34;13.20;67.90
83500;DHT22;73433;50.908;13.746;2024-03-23T09:06:10;13.00;69.30
83500;DHT22;73433;50.908;13.746;2024-03-23T09:08:37;12.80;70.30
83500;DHT22;73433;50.908;13.746;2024-03-23T09:11:08;12.70;70.90
83500;DHT22;73433;50.908;13.746;2024-03-23T09:13:35;12.60;70.90
83500;DHT22;73433;50.908;13.746;2024-03-23T09:16:02;12.50;72.00
83500;DHT22;73433;50.908;13.746;2024-03-23T09:18:32;12.50;72.20
83500;DHT22;73433;50.908;13.746;2024-03-23T09:20:58;12.40;73.40
83500;DHT22;73433;50.908;13.746;2024-03-23T09:23:24;12.40;72.90
83500;DHT22;73433;50.908;13.746;2024-03-23T09:25:50;12.40;73.10
83500;DHT22;73433;50.908;13.746;2024-03-23T09:28:17;12.30;74.50
83500;DHT22;73433;50.908;13.746;2024-03-23T09:30:43;12.10;74.80
83500;DHT22;73433;50.908;13.746;2024-03-23T09:33:10;11.90;75.60
83500;DHT22;73433;50.908;13.746;2024-03-23T09:35:46;11.60;76.00
83500;DHT22;73433;50.908;13.746;2024-03-23T09:38:13;11.30;76.60
83500;DHT22;73433;50.908;13.746;2024-03-23T09:40:42;11.20;77.20
83500;DHT22;73433;50.908;13.746;2024-03-23T09:43:09;11.10;78.30
83500;DHT22;73433;50.908;13.746;2024-03-23T09:45:39;11.20;79.20
83500;DHT22;73433;50.908;13.746;2024-03-23T09:48:09;11.30;79.80
83500;DHT22;73433;50.908;13.746;2024-03-23T09:50:39;11.40;79.90
83500;DHT22;73433;50.908;13.746;2024-03-23T09:53:10;11.40;79.20
83500;DHT22;73433;50.908;13.746;2024-03-23T09:55:38;11.30;79.40
83500;DHT22;73433;50.908;13.746;2024-03-23T09:58:05;11.10;79.90
83500;DHT22;73433;50.908;13.746;2024-03-23T10:00:32;10.90;80.40
83500;DHT22;73433;50.908;13.746;2024-03-23T10:02:59;10.70;81.20
83500;DHT22;73433;50.908;13.746;2024-03-23T10:05:28;10.40;82.40
83500;DHT22;73433;50.908;13.746;2024-03-23T10:07:55;10.10;83.20
83500;DHT22;73433;50.908;13.746;2024-03-23T10:10:21;9.90;83.60
83500;DHT22;73433;50.908;13.746;2024-03-23T10:12:48;9.70;84.30
83500;DHT22;73433;50.908;13.746;2024-03-23T10:15:23;9.50;85.30
83500;DHT22;73433;50.908;13.746;2024-03-23T10:17:50;9.30;85.30
83500;DHT22;73433;50.908;13.746;2024-03-23T10:20:21;9.00;84.30
83500;DHT22;73433;50.908;13.746;2024-03-23T10:22:49;8.60;84.50
83500;DHT22;73433;50.908;13.746;2024-03-23T10:25:16;8.30;84.40
83500;DHT22;73433;50.908;13.746;2024-03-23T10:27:42;8.00;84.40
83500;DHT22;73433;50.908;13.746;2024-03-23T10:30:13;7.70;84.90
83500;DHT22;73433;50.908;13.746;2024-03-23T10:32:40;7.40;85.70
83500;DHT22;73433;50.908;13.746;2024-03-23T10:35:17;7.20;86.40
83500;DHT22;73433;50.908;13.746;2024-03-23T10:37:49;7.00;86.60
83500;DHT22;73433;50.908;13.746;2024-03-23T10:40:17;6.80;86.80
83500;DHT22;73433;50.908;13.746;2024-03-23T10:42:47;6.60;86.90
83500;DHT22;73433;50.908;13.746;2024-03-23T10:45:13;6.40;86.80
83500;DHT22;73433;50.908;13.746;2024-03-23T10:47:39;6.20;87.10
83500;DHT22;73433;50.908;13.746;2024-03-23T10:50:06;6.00;87.60
83500;DHT22;73433;50.908;13.746;2024-03-23T10:52:36;5.90;87.80
83500;DHT22;73433;50.908;13.746;2024-03-23T10:55:05;5.80;88.30
83500;DHT22;73433;50.908;13.746;2024-03-23T10:57:56;5.80;89.10
83500;DHT22;73433;50.908;13.746;2024-03-23T11:00:25;5.80;89.60
83500;DHT22;73433;50.908;13.746;2024-03-23T11:02:51;5.90;90.50
83500;DHT22;73433;50.908;13.746;2024-03-23T11:07:53;6.00;89.70
83500;DHT22;73433;50.908;13.746;2024-03-23T11:10:27;6.00;89.90
83500;DHT22;73433;50.908;13.746;2024-03-23T11:12:58;6.00;90.00
83500;DHT22;73433;50.908;13.746;2024-03-23T11:15:24;6.00;89.90
83500;DHT22;73433;50.908;13.746;2024-03-23T11:18:06;6.10;90.50
83500;DHT22;73433;50.908;13.746;2024-03-23T11:20:38;6.30;90.70
83500;DHT22;73433;50.908;13.746;2024-03-23T11:23:04;6.40;89.50
83500;DHT22;73433;50.908;13.746;2024-03-23T11:25:30;6.50;88.90
83500;DHT22;73433;50.908;13.746;2024-03-23T11:27:58;6.50;87.50
83500;DHT22;73433;50.908;13.746;2024-03-23T11:30:28;6.50;87.50
83500;DHT22;73433;50.908;13.746;2024-03-23T11:32:56;6.40;85.90
83500;DHT22;73433;50.908;13.746;2024-03-23T11:35:32;6.30;85.80
83500;DHT22;73433;50.908;13.746;2024-03-23T11:38:13;6.20;85.90
83500;DHT22;73433;50.908;13.746;2024-03-23T11:40:44;6.00;86.80
83500;DHT22;73433;50.908;13.746;2024-03-23T11:45:49;5.90;86.50
83500;DHT22;73433;50.908;13.746;2024-03-23T11:48:22;5.90;86.90
83500;DHT22;73433;50.908;13.746;2024-03-23T11:50:50;5.80;86.90
83500;DHT22;73433;50.908;13.746;2024-03-23T11:53:22;5.80;87.40
83500;DHT22;73433;50.908;13.746;2024-03-23T11:55:56;5.80;87.40
83500;DHT22;73433;50.908;13.746;2024-03-23T11:58:24;5.80;87.50
83500;DHT22;73433;50.908;13.746;2024-03-23T12:01:00;5.90;87.90
83500;DHT22;73433;50.908;13.746;2024-03-23T12:03:31;5.90;87.70
83500;DHT22;73433;50.908;13.746;2024-03-23T12:06:02;6.00;87.70
83500;DHT22;73433;50.908;13.746;2024-03-23T12:08:32;6.00;87.50
83500;DHT22;73433;50.908;13.746;2024-03-23T12:11:14;6.10;86.90
83500;DHT22;73433;50.908;13.746;2024-03-23T12:13:43;6.10;86.10
83500;DHT22;73433;50.908;13.746;2024-03-23T12:16:16;6.10;85.60
83500;DHT22;73433;50.908;13.746;2024-03-23T12:18:44;6.00;85.20
83500;DHT22;73433;50.908;13.746;2024-03-23T12:21:11;6.00;85.40
83500;DHT22;73433;50.908;13.746;2024-03-23T12:23:39;5.90;85.40
83500;DHT22;73433;50.908;13.746;2024-03-23T12:26:06;5.90;85.30
83500;DHT22;73433;50.908;13.746;2024-03-23T12:28:32;6.00;85.80
83500;DHT22;73433;50.908;13.746;2024-03-23T12:30:59;5.90;85.00
83500;DHT22;73433;50.908;13.746;2024-03-23T12:33:25;5.90;84.90
83500;DHT22;73433;50.908;13.746;2024-03-23T12:35:51;6.00;85.30
83500;DHT22;73433;50.908;13.746;2024-03-23T12:38:18;6.10;84.70
83500;DHT22;73433;50.908;13.746;2024-03-23T12:40:49;6.30;84.40
83500;DHT22;73433;50.908;13.746;2024-03-23T12:43:15;6.30;82.70
83500;DHT22;73433;50.908;13.746;2024-03-23T12:45:46;6.30;82.00
83500;DHT22;73433;50.908;13.746;2024-03-23T12:48:13;6.20;81.50
83500;DHT22;73433;50.908;13.746;2024-03-23T12:50:39;6.10;82.20
83500;DHT22;73433;50.908;13.746;2024-03-23T12:53:05;6.10;82.40
83500;DHT22;73433;50.908;13.746;2024-03-23T12:55:31;6.00;82.70
83500;DHT22;73433;50.908;13.746;2024-03-23T12:57:57;6.00;83.00
83500;DHT22;73433;50.908;13.746;2024-03-23T13:00:23;6.00;82.90
83500;DHT22;73433;50.908;13.746;2024-03-23T13:02:49;5.90;82.80
83500;DHT22;73433;50.908;13.746;2024-03-23T13:05:15;5.90;83.60
83500;DHT22;73433;50.908;13.746;2024-03-23T13:07:41;5.90;83.80
83500;DHT22;73433;50.908;13.746;2024-03-23T13:10:07;5.90;83.80
83500;DHT22;73433;50.908;13.746;2024-03-23T13:12:34;5.90;83.60
83500;DHT22;73433;50.908;13.746;2024-03-23T13:15:00;5.90;83.20
83500;DHT22;73433;50.908;13.746;2024-03-23T13:17:27;5.90;83.10
83500;DHT22;73433;50.908;13.746;2024-03-23T13:19:54;5.80;83.20
83500;DHT22;73433;50.908;13.746;2024-03-23T13:22:24;5.70;83.30
83500;DHT22;73433;50.908;13.746;2024-03-23T13:24:50;5.70;83.30
83500;DHT22;73433;50.908;13.746;2024-03-23T13:27:16;5.70;82.70
83500;DHT22;73433;50.908;13.746;2024-03-23T13:29:42;5.70;83.20
83500;DHT22;73433;50.908;13.746;2024-03-23T13:32:08;5.70;82.90
83500;DHT22;73433;50.908;13.746;2024-03-23T13:34:34;5.60;82.90
83500;DHT22;73433;50.908;13.746;2024-03-23T13:37:01;5.70;83.50
83500;DHT22;73433;50.908;13.746;2024-03-23T13:39:27;5.80;83.00
83500;DHT22;73433;50.908;13.746;2024-03-23T13:41:54;5.80;81.90
83500;DHT22;73433;50.908;13.746;2024-03-23T13:44:23;5.80;81.40
83500;DHT22;73433;50.908;13.746;2024-03-23T13:46:49;5.90;81.90
83500;DHT22;73433;50.908;13.746;2024-03-23T13:49:26;6.00;82.00
83500;DHT22;73433;50.908;13.746;2024-03-23T13:51:53;6.10;81.90
83500;DHT22;73433;50.908;13.746;2024-03-23T13:54:20;6.20;82.20
83500;DHT22;73433;50.908;13.746;2024-03-23T13:56:51;6.60;83.80
83500;DHT22;73433;50.908;13.746;2024-03-23T13:59:17;7.20;83.00
83500;DHT22;73433;50.908;13.746;2024-03-23T14:01:44;7.80;80.30
83500;DHT22;73433;50.908;13.746;2024-03-23T14:04:12;8.30;78.90
83500;DHT22;73433;50.908;13.746;2024-03-23T14:06:38;8.70;75.50
83500;DHT22;73433;50.908;13.746;2024-03-23T14:09:05;9.10;74.80
83500;DHT22;73433;50.908;13.746;2024-03-23T14:11:37;9.40;73.20
83500;DHT22;73433;50.908;13.746;2024-03-23T14:14:04;9.60;69.70
83500;DHT22;73433;50.908;13.746;2024-03-23T14:16:31;9.40;68.50
83500;DHT22;73433;50.908;13.746;2024-03-23T14:18:57;9.30;68.30
83500;DHT22;73433;50.908;13.746;2024-03-23T14:21:24;9.00;67.10
83500;DHT22;73433;50.908;13.746;2024-03-23T14:23:50;8.90;68.20
83500;DHT22;73433;50.908;13.746;2024-03-23T14:26:16;8.80;67.50
83500;DHT22;73433;50.908;13.746;2024-03-23T14:28:42;8.50;66.90
83500;DHT22;73433;50.908;13.746;2024-03-23T14:31:08;8.30;67.10
83500;DHT22;73433;50.908;13.746;2024-03-23T14:33:39;8.00;68.00
83500;DHT22;73433;50.908;13.746;2024-03-23T14:36:16;7.90;69.20
83500;DHT22;73433;50.908;13.746;2024-03-23T14:38:50;7.70;69.60
83500;DHT22;73433;50.908;13.746;2024-03-23T14:41:16;7.60;69.80
83500;DHT22;73433;50.908;13.746;2024-03-23T14:43:42;7.70;71.30
83500;DHT22;73433;50.908;13.746;2024-03-23T14:46:11;7.80;71.30
83500;DHT22;73433;50.908;13.746;2024-03-23T14:48:39;8.00;70.60
83500;DHT22;73433;50.908;13.746;2024-03-23T14:51:06;8.00;70.30
83500;DHT22;73433;50.908;13.746;2024-03-23T14:53:35;8.10;70.50
83500;DHT22;73433;50.908;13.746;2024-03-23T14:56:02;8.10;70.50
83500;DHT22;73433;50.908;13.746;2024-03-23T14:58:29;8.10;70.10
83500;DHT22;73433;50.908;13.746;2024-03-23T15:01:04;8.10;69.50
83500;DHT22;73433;50.908;13.746;2024-03-23T15:03:31;8.00;70.20
83500;DHT22;73433;50.908;13.746;2024-03-23T15:05:58;8.00;69.80
83500;DHT22;73433;50.908;13.746;2024-03-23T15:08:25;7.90;69.90
83500;DHT22;73433;50.908;13.746;2024-03-23T15:10:51;7.80;70.20
83500;DHT22;73433;50.908;13.746;2024-03-23T15:13:17;7.80;70.70
83500;DHT22;73433;50.908;13.746;2024-03-23T15:15:44;7.70;70.30
83500;DHT22;73433;50.908;13.746;2024-03-23T15:18:11;7.70;70.50
83500;DHT22;73433;50.908;13.746;2024-03-23T15:20:39;7.60;70.90
83500;DHT22;73433;50.908;13.746;2024-03-23T15:23:05;7.60;71.30
83500;DHT22;73433;50.908;13.746;2024-03-23T15:25:31;7.60;71.30
83500;DHT22;73433;50.908;13.746;2024-03-23T15:27:58;7.60;70.90
83500;DHT22;73433;50.908;13.746;2024-03-23T15:30:28;7.60;70.70
83500;DHT22;73433;50.908;13.746;2024-03-23T15:32:55;7.60;70.60
83500;DHT22;73433;50.908;13.746;2024-03-23T15:35:21;7.60;70.50
83500;DHT22;73433;50.908;13.746;2024-03-23T15:37:50;7.50;70.30
83500;DHT22;73433;50.908;13.746;2024-03-23T15:40:16;7.60;70.60
83500;DHT22;73433;50.908;13.746;2024-03-23T15:42:42;7.50;70.90
83500;DHT22;73433;50.908;13.746;2024-03-23T15:45:08;7.50;70.90
83500;DHT22;73433;50.908;13.746;2024-03-23T15:47:35;7.50;71.10
83500;DHT22;73433;50.908;13.746;2024-03-23T15:50:02;7.40;70.90
83500;DHT22;73433;50.908;13.746;2024-03-23T15:52:35;7.40;71.10
83500;DHT22;73433;50.908;13.746;2024-03-23T15:55:03;7.30;71.20
83500;DHT22;73433;50.908;13.746;2024-03-23T15:57:34;7.30;72.00
83500;DHT22;73433;50.908;13.746;2024-03-23T16:00:02;7.30;72.50
83500;DHT22;73433;50.908;13.746;2024-03-23T16:02:28;7.30;72.80
83500;DHT22;73433;50.908;13.746;2024-03-23T16:04:55;7.20;72.40
83500;DHT22;73433;50.908;13.746;2024-03-23T16:07:21;7.20;72.70
83500;DHT22;73433;50.908;13.746;2024-03-23T16:09:47;7.20;73.20
83500;DHT22;73433;50.908;13.746;2024-03-23T16:12:14;7.20;73.10
83500;DHT22;73433;50.908;13.746;2024-03-23T16:14:40;7.10;72.90
83500;DHT22;73433;50.908;13.746;2024-03-23T16:17:06;7.10;73.00
83500;DHT22;73433;50.908;13.746;2024-03-23T16:19:33;7.10;72.80
83500;DHT22;73433;50.908;13.746;2024-03-23T16:21:59;7.10;73.10
83500;DHT22;73433;50.908;13.746;2024-03-23T16:24:25;7.20;72.90
83500;DHT22;73433;50.908;13.746;2024-03-23T16:26:51;7.20;72.70